Time;durP1;ratioP1;P1;durP2;ratioP2;P2;SDS_P1;SDS_P2;PMS_P1;PMS_P2;Temp;Humidity;BMP_temperature;BMP_pressure;BME280_temperature;BME280_humidity;BME280_pressure;Samples;Min_cycle;Max_cycle;Signal;HPM_P1;HPM_P2
2023/03/26 00:00:48;;;;;;;4.70;3.53;;;11.00;99.90;;;;;;5031094;28;20442;-80
2023/03/26 00:03:17;;;;;;;3.67;3.43;;;11.00;99.90;;;;;;5031663;28;20428;-80
2023/03/26 00:05:45;;;;;;;4.60;4.03;;;11.00;99.90;;;;;;5013503;28;20468;-80
2023/03/26 00:08:11;;;;;;;4.90;3.20;;;11.00;99.90;;;;;;5032923;28;20420;-80
2023/03/26 00:10:38;;;;;;;6.50;4.27;;;11.10;99.90;;;;;;4996526;28;20429;-80
2023/03/26 00:13:05;;;;;;;4.30;3.90;;;11.10;99.90;;;;;;5003273;28;20193;-80
2023/03/26 00:15:32;;;;;;;5.87;4.00;;;11.10;99.90;;;;;;5013704;28;20436;-80
2023/03/26 00:17:59;;;;;;;7.00;4.60;;;11.20;99.90;;;;;;5006751;28;20438;-80
2023/03/26 00:20:26;;;;;;;8.03;4.20;;;11.10;99.90;;;;;;4995600;28;20442;-81
2023/03/26 00:22:54;;;;;;;5.27;4.13;;;11.10;99.90;;;;;;5013529;28;20407;-80
2023/03/26 00:25:21;;;;;;;8.13;4.47;;;11.10;99.90;;;;;;5017507;28;20450;-80
2023/03/26 00:27:48;;;;;;;5.00;4.00;;;11.10;99.90;;;;;;5017376;28;20586;-80
2023/03/26 00:30:15;;;;;;;5.00;4.50;;;11.10;99.90;;;;;;5017036;28;20430;-81
2023/03/26 00:32:41;;;;;;;5.27;4.77;;;11.20;99.90;;;;;;5036076;28;20523;-80
2023/03/26 00:35:08;;;;;;;7.30;4.50;;;11.20;99.90;;;;;;4996256;28;20513;-81
2023/03/26 00:37:33;;;;;;;8.17;5.57;;;11.10;99.90;;;;;;5030302;28;20437;-80
2023/03/26 00:40:05;;;;;;;7.87;4.90;;;11.10;99.90;;;;;;5032589;28;20784;-80
2023/03/26 00:42:32;;;;;;;9.00;4.83;;;11.20;99.90;;;;;;5029339;28;20213;-81
2023/03/26 00:44:57;;;;;;;5.10;4.43;;;11.20;99.90;;;;;;5045191;28;20466;-81
2023/03/26 00:47:24;;;;;;;13.30;5.10;;;11.20;99.90;;;;;;5020666;28;20882;-83
2023/03/26 00:49:50;;;;;;;7.83;4.43;;;11.30;99.90;;;;;;5032271;28;20188;-81
2023/03/26 00:52:17;;;;;;;9.33;5.10;;;11.30;99.90;;;;;;5048416;28;20887;-79
2023/03/26 00:54:50;;;;;;;5.40;4.17;;;11.20;99.90;;;;;;5054374;28;20430;-80
2023/03/26 00:57:16;;;;;;;11.23;5.20;;;11.20;99.90;;;;;;5056491;28;20424;-80
2023/03/26 00:59:41;;;;;;;14.73;5.73;;;11.20;99.90;;;;;;5051710;28;20413;-80
2023/03/26 01:02:11;;;;;;;8.80;4.50;;;11.20;99.90;;;;;;5044567;28;20227;-79
2023/03/26 01:04:37;;;;;;;8.50;4.60;;;11.30;99.90;;;;;;5049675;28;20194;-81
2023/03/26 01:07:12;;;;;;;11.30;4.50;;;11.30;99.90;;;;;;5029753;28;20436;-80
2023/03/26 01:09:44;;;;;;;10.90;4.80;;;11.30;99.90;;;;;;5039780;28;20252;-80
2023/03/26 01:12:17;;;;;;;15.63;6.23;;;11.30;99.90;;;;;;5042433;28;20424;-80
2023/03/26 01:14:44;;;;;;;14.53;5.70;;;11.30;99.90;;;;;;5053211;28;20413;-81
2023/03/26 01:17:11;;;;;;;12.20;5.43;;;11.30;99.90;;;;;;5034550;28;20921;-81
2023/03/26 01:20:14;;;;;;;7.90;4.93;;;11.30;99.90;;;;;;5048532;28;20430;-81
2023/03/26 01:22:46;;;;;;;8.27;4.80;;;11.40;99.90;;;;;;5050510;28;20435;-81
2023/03/26 01:25:13;;;;;;;14.07;5.17;;;11.40;99.90;;;;;;5053638;28;20485;-80
2023/03/26 01:27:47;;;;;;;6.77;4.70;;;11.40;99.90;;;;;;5048632;28;20439;-81
2023/03/26 01:30:23;;;;;;;13.57;5.27;;;11.40;99.90;;;;;;5042478;28;20842;-81
2023/03/26 01:33:12;;;;;;;11.57;5.10;;;11.40;99.90;;;;;;5053731;28;20428;-80
2023/03/26 01:35:54;;;;;;;9.97;4.90;;;11.30;99.90;;;;;;5053923;28;20397;-81
2023/03/26 01:38:26;;;;;;;8.33;4.53;;;11.30;99.90;;;;;;5054244;28;20385;-80
2023/03/26 01:41:14;;;;;;;8.43;4.63;;;11.30;99.90;;;;;;5036368;28;20438;-80
2023/03/26 01:44:17;;;;;;;13.47;4.67;;;11.30;99.90;;;;;;5052861;28;20495;-81
2023/03/26 01:46:44;;;;;;;13.60;6.30;;;11.30;99.90;;;;;;5052005;28;20472;-81
2023/03/26 01:49:11;;;;;;;10.77;5.23;;;11.30;99.90;;;;;;5054181;28;20405;-81
2023/03/26 01:51:39;;;;;;;14.37;4.37;;;11.20;99.90;;;;;;5034391;28;20417;-81
2023/03/26 01:54:11;;;;;;;10.87;4.20;;;11.20;99.90;;;;;;5052058;28;20931;-81
2023/03/26 01:57:09;;;;;;;15.73;5.47;;;11.30;99.90;;;;;;5052095;28;20428;-81
2023/03/26 02:00:10;;;;;;;10.70;5.30;;;11.30;99.90;;;;;;5043387;28;20524;-82
2023/03/26 02:02:47;;;;;;;16.60;5.50;;;11.40;99.90;;;;;;5053122;28;20421;-80
2023/03/26 02:05:57;;;;;;;13.93;5.47;;;11.30;99.90;;;;;;5053489;28;20926;-80
2023/03/26 02:08:30;;;;;;;11.10;5.43;;;11.30;99.90;;;;;;5019821;28;20439;-78
2023/03/26 02:10:58;;;;;;;9.30;5.77;;;11.30;99.90;;;;;;5053427;28;20423;-79
2023/03/26 02:13:25;;;;;;;13.00;6.00;;;11.40;99.90;;;;;;5053455;28;20524;-79
2023/03/26 02:15:59;;;;;;;13.80;5.17;;;11.30;99.90;;;;;;5052047;28;20424;-79
2023/03/26 02:18:35;;;;;;;14.67;5.83;;;11.40;99.90;;;;;;5053525;28;20429;-79
2023/03/26 02:21:04;;;;;;;15.73;5.30;;;11.40;99.90;;;;;;5052360;28;20947;-80
2023/03/26 02:23:34;;;;;;;12.00;5.63;;;11.40;99.90;;;;;;5051528;28;20435;-80
2023/03/26 02:26:08;;;;;;;10.00;4.27;;;11.50;99.90;;;;;;5052147;28;20489;-79
2023/03/26 02:28:34;;;;;;;11.87;6.17;;;11.50;99.90;;;;;;5052680;28;20822;-79
2023/03/26 02:31:00;;;;;;;13.40;5.17;;;11.70;99.90;;;;;;5052999;28;21015;-79
2023/03/26 02:33:27;;;;;;;10.70;4.90;;;11.60;99.90;;;;;;5050571;28;20426;-79
2023/03/26 02:35:53;;;;;;;10.20;4.57;;;11.60;99.90;;;;;;5052977;28;20435;-79
2023/03/26 02:38:19;;;;;;;15.50;5.23;;;11.60;99.90;;;;;;5053401;28;20771;-79
2023/03/26 02:40:45;;;;;;;11.73;4.80;;;11.70;99.90;;;;;;5052451;28;20396;-79
2023/03/26 02:43:11;;;;;;;14.60;5.50;;;11.70;99.90;;;;;;5052895;28;20300;-79
2023/03/26 02:45:36;;;;;;;12.23;4.50;;;11.70;99.90;;;;;;5052385;28;20531;-79
2023/03/26 02:48:02;;;;;;;8.60;4.67;;;11.70;99.90;;;;;;5051226;28;20176;-79
2023/03/26 02:50:31;;;;;;;10.47;4.23;;;11.70;99.90;;;;;;5054085;28;20515;-79
2023/03/26 02:52:57;;;;;;;13.10;4.80;;;11.60;99.90;;;;;;5052911;28;20188;-79
2023/03/26 02:55:23;;;;;;;14.50;4.47;;;11.60;99.90;;;;;;5052807;28;20427;-79
2023/03/26 02:57:48;;;;;;;12.57;4.83;;;11.60;99.90;;;;;;5053332;28;20482;-79
2023/03/26 03:00:15;;;;;;;7.73;4.67;;;11.60;99.90;;;;;;5052831;28;20260;-80
2023/03/26 03:02:43;;;;;;;7.90;4.30;;;11.60;99.90;;;;;;5051023;28;20180;-79
2023/03/26 03:05:09;;;;;;;10.80;4.67;;;11.70;99.90;;;;;;5051235;28;20973;-79
2023/03/26 03:07:37;;;;;;;13.07;5.07;;;11.60;99.90;;;;;;5054139;28;20409;-80
2023/03/26 03:10:12;;;;;;;10.60;4.30;;;11.70;99.90;;;;;;5051111;28;20428;-79
2023/03/26 03:12:39;;;;;;;8.37;4.93;;;11.70;99.90;;;;;;5050390;28;20430;-79
2023/03/26 03:15:06;;;;;;;12.13;5.20;;;11.70;99.90;;;;;;5049954;28;20609;-79
2023/03/26 03:17:32;;;;;;;13.37;4.67;;;11.70;99.90;;;;;;5053854;28;20476;-79
2023/03/26 03:19:58;;;;;;;17.20;4.97;;;11.70;99.90;;;;;;5052468;28;20825;-80
2023/03/26 03:22:24;;;;;;;10.27;5.10;;;11.70;99.90;;;;;;5052554;28;20422;-79
2023/03/26 03:24:56;;;;;;;12.40;5.13;;;11.70;99.90;;;;;;5053028;28;20794;-80
2023/03/26 03:27:24;;;;;;;13.83;5.90;;;11.70;99.90;;;;;;5034226;28;20268;-80
2023/03/26 03:29:54;;;;;;;10.70;5.10;;;11.70;99.90;;;;;;5037175;28;20477;-80
2023/03/26 03:32:21;;;;;;;11.00;5.10;;;11.70;99.90;;;;;;5031560;28;20774;-80
2023/03/26 03:34:49;;;;;;;9.03;4.47;;;11.70;99.90;;;;;;5023245;28;20437;-80
2023/03/26 03:37:16;;;;;;;7.03;4.63;;;11.70;99.90;;;;;;5035228;28;20420;-80
2023/03/26 03:39:42;;;;;;;8.63;4.77;;;11.70;99.90;;;;;;5051071;28;20435;-80
2023/03/26 03:42:07;;;;;;;11.17;4.50;;;11.70;99.90;;;;;;5050441;28;20814;-81
2023/03/26 03:44:33;;;;;;;12.83;4.07;;;11.70;99.90;;;;;;5035331;28;20232;-80
2023/03/26 03:46:59;;;;;;;17.93;5.00;;;11.70;99.90;;;;;;5050537;28;20311;-80
2023/03/26 03:49:25;;;;;;;13.87;4.73;;;11.70;99.90;;;;;;5051688;28;20925;-80
2023/03/26 03:51:50;;;;;;;9.67;4.60;;;11.70;99.90;;;;;;5051101;28;20628;-80
2023/03/26 03:54:16;;;;;;;16.40;4.83;;;11.80;99.90;;;;;;5051752;28;20192;-81
2023/03/26 03:56:44;;;;;;;9.67;4.40;;;11.80;99.90;;;;;;5041865;28;20179;-80
2023/03/26 03:59:10;;;;;;;7.60;3.67;;;11.70;99.90;;;;;;5051865;28;20173;-80
2023/03/26 04:01:36;;;;;;;9.20;4.00;;;11.70;99.90;;;;;;5050082;28;20426;-80
2023/03/26 04:04:03;;;;;;;17.80;5.30;;;11.70;99.90;;;;;;5050310;28;20522;-80
2023/03/26 04:06:29;;;;;;;17.30;6.10;;;11.70;99.90;;;;;;5051251;28;20438;-80
2023/03/26 04:08:55;;;;;;;14.20;5.07;;;11.80;99.90;;;;;;5052316;28;20748;-79
2023/03/26 04:11:21;;;;;;;14.77;4.87;;;11.80;99.90;;;;;;5041347;28;20424;-79
2023/03/26 04:13:47;;;;;;;8.67;4.20;;;11.70;99.90;;;;;;5037879;28;20426;-79
2023/03/26 04:16:13;;;;;;;5.70;4.10;;;11.70;99.90;;;;;;5051424;28;20436;-79
2023/03/26 04:18:39;;;;;;;14.10;4.40;;;11.70;99.90;;;;;;5050972;28;20187;-79
2023/03/26 04:21:06;;;;;;;12.87;5.13;;;11.90;99.90;;;;;;5051443;28;20498;-79
2023/03/26 04:23:33;;;;;;;10.33;4.47;;;11.80;99.90;;;;;;5052788;28;20465;-79
2023/03/26 04:26:03;;;;;;;11.63;5.43;;;11.80;99.90;;;;;;5032995;28;20509;-79
2023/03/26 04:28:47;;;;;;;12.30;5.43;;;11.80;99.90;;;;;;5047788;28;20922;-79
2023/03/26 04:31:17;;;;;;;14.10;4.60;;;11.80;99.90;;;;;;5040739;28;20524;-79
2023/03/26 04:33:47;;;;;;;9.77;4.20;;;11.80;99.90;;;;;;5050428;28;20505;-79
2023/03/26 04:36:14;;;;;;;8.10;4.57;;;11.80;99.90;;;;;;5042782;28;20773;-79
2023/03/26 04:38:47;;;;;;;9.63;4.80;;;11.80;99.90;;;;;;5038880;28;20432;-79
2023/03/26 04:41:14;;;;;;;11.10;4.10;;;11.80;99.90;;;;;;5045412;28;21200;-79
2023/03/26 04:43:45;;;;;;;13.03;4.40;;;11.70;99.90;;;;;;5014416;28;20405;-80
2023/03/26 04:46:12;;;;;;;8.07;4.30;;;11.80;99.90;;;;;;5029963;28;20539;-79
2023/03/26 04:48:38;;;;;;;9.43;4.33;;;11.80;99.90;;;;;;5030389;28;20481;-80
2023/03/26 04:51:08;;;;;;;10.73;4.83;;;11.80;99.90;;;;;;5032537;28;20893;-79
2023/03/26 04:53:35;;;;;;;11.67;4.13;;;11.80;99.90;;;;;;4998517;28;20203;-79
2023/03/26 04:56:20;;;;;;;10.63;4.50;;;11.80;99.90;;;;;;5016128;28;20466;-80
2023/03/26 04:58:46;;;;;;;17.27;4.67;;;11.90;99.90;;;;;;4995232;28;20429;-80
2023/03/26 05:01:12;;;;;;;13.90;4.90;;;11.80;99.90;;;;;;5024930;28;20429;-79
2023/03/26 05:03:40;;;;;;;9.70;4.60;;;11.80;99.90;;;;;;5014689;28;20484;-79
2023/03/26 05:06:06;;;;;;;11.03;4.70;;;11.80;99.90;;;;;;5012685;28;20208;-80
2023/03/26 05:08:31;;;;;;;6.60;4.37;;;11.80;99.90;;;;;;5027437;28;20443;-80
2023/03/26 05:10:57;;;;;;;8.63;4.80;;;11.80;99.90;;;;;;5015129;28;20796;-80
2023/03/26 05:13:23;;;;;;;12.23;4.87;;;11.80;99.90;;;;;;5036038;28;20181;-80
2023/03/26 05:15:49;;;;;;;11.17;4.67;;;11.70;99.90;;;;;;5016781;28;20215;-79
2023/03/26 05:18:15;;;;;;;10.57;4.53;;;11.70;99.90;;;;;;5034825;28;20603;-79
2023/03/26 05:20:42;;;;;;;16.20;5.03;;;11.70;99.90;;;;;;5035653;28;20174;-81
2023/03/26 05:23:08;;;;;;;19.20;5.43;;;11.80;99.90;;;;;;5000757;28;20453;-79
2023/03/26 05:25:34;;;;;;;8.40;4.43;;;11.70;99.90;;;;;;5015918;28;20809;-79
2023/03/26 05:28:00;;;;;;;8.80;4.60;;;11.70;99.90;;;;;;4981777;28;20717;-79
2023/03/26 05:30:26;;;;;;;11.87;4.30;;;11.70;99.90;;;;;;5032416;28;20434;-79
2023/03/26 05:32:52;;;;;;;6.30;4.33;;;11.70;99.90;;;;;;5033859;28;20761;-79
2023/03/26 05:35:18;;;;;;;6.40;4.50;;;11.70;99.90;;;;;;4999271;28;20939;-79
2023/03/26 05:37:45;;;;;;;10.60;4.90;;;11.70;99.90;;;;;;5035107;28;20205;-80
2023/03/26 05:40:15;;;;;;;11.83;4.67;;;11.70;99.90;;;;;;4991639;28;20216;-79
2023/03/26 05:42:42;;;;;;;7.43;4.90;;;11.70;99.90;;;;;;5027732;28;20472;-80
2023/03/26 05:45:10;;;;;;;10.30;4.90;;;11.70;99.90;;;;;;5055225;28;20458;-79
2023/03/26 05:47:38;;;;;;;6.43;5.00;;;11.70;99.90;;;;;;5054087;28;20441;-78
2023/03/26 05:50:05;;;;;;;7.90;7.20;;;11.70;99.90;;;;;;5053468;28;20431;-79
2023/03/26 05:52:31;;;;;;;12.90;5.70;;;11.70;99.90;;;;;;5054386;28;20559;-79
2023/03/26 05:54:57;;;;;;;11.60;4.83;;;11.60;99.90;;;;;;5053724;28;20430;-79
2023/03/26 05:57:27;;;;;;;11.53;5.17;;;11.70;99.90;;;;;;5052726;28;20435;-79
2023/03/26 05:59:54;;;;;;;8.60;4.37;;;11.70;99.90;;;;;;5052387;28;20173;-80
2023/03/26 06:02:20;;;;;;;7.50;4.27;;;11.70;99.90;;;;;;5055828;28;20514;-79
2023/03/26 06:04:49;;;;;;;10.63;4.97;;;11.60;99.90;;;;;;5031871;28;20544;-79
2023/03/26 06:07:16;;;;;;;9.27;5.03;;;11.80;99.90;;;;;;5044485;28;20244;-73
2023/03/26 06:09:43;;;;;;;7.70;5.43;;;11.70;99.90;;;;;;5053415;28;20468;-76
2023/03/26 06:12:10;;;;;;;7.70;4.50;;;11.70;99.90;;;;;;5053351;28;20412;-75
2023/03/26 06:14:36;;;;;;;8.30;4.87;;;11.70;99.90;;;;;;5053489;28;20431;-75
2023/03/26 06:17:02;;;;;;;8.17;5.10;;;11.80;99.90;;;;;;5052842;28;20430;-75
2023/03/26 06:19:27;;;;;;;10.37;5.73;;;11.90;99.90;;;;;;5058319;28;20473;-75
2023/03/26 06:21:53;;;;;;;7.90;5.07;;;11.70;99.90;;;;;;5044154;28;20427;-75
2023/03/26 06:24:19;;;;;;;6.77;5.37;;;11.60;99.90;;;;;;5046836;28;20552;-75
2023/03/26 06:26:45;;;;;;;8.43;4.87;;;11.60;99.90;;;;;;5035618;28;20192;-76
2023/03/26 06:29:15;;;;;;;8.13;5.50;;;11.60;99.90;;;;;;5051684;28;20256;-75
2023/03/26 06:31:40;;;;;;;10.07;6.37;;;11.70;99.90;;;;;;5047835;28;20756;-75
2023/03/26 06:34:06;;;;;;;10.23;5.60;;;11.60;99.90;;;;;;5036406;28;20434;-76
2023/03/26 06:36:32;;;;;;;10.73;5.83;;;11.60;99.90;;;;;;5054839;28;20179;-75
2023/03/26 06:38:58;;;;;;;11.27;5.73;;;11.60;99.90;;;;;;5048933;28;20476;-76
2023/03/26 06:41:24;;;;;;;8.47;5.47;;;11.60;99.90;;;;;;5050240;28;20291;-75
2023/03/26 06:43:49;;;;;;;10.40;5.00;;;11.60;99.90;;;;;;5030262;28;20222;-77
2023/03/26 06:46:15;;;;;;;10.83;4.50;;;11.50;99.90;;;;;;5032718;28;20691;-77
2023/03/26 06:48:41;;;;;;;7.17;4.90;;;11.40;99.90;;;;;;5033207;28;20204;-77
2023/03/26 06:51:08;;;;;;;10.17;5.27;;;11.40;99.90;;;;;;5031396;28;20645;-75
2023/03/26 06:53:34;;;;;;;7.90;4.90;;;11.40;99.90;;;;;;5001568;28;20235;-75
2023/03/26 06:56:01;;;;;;;6.77;4.93;;;11.50;99.90;;;;;;5001036;28;20440;-76
2023/03/26 06:58:27;;;;;;;8.80;4.87;;;11.50;99.90;;;;;;5032751;28;20166;-75
2023/03/26 07:00:53;;;;;;;5.37;4.20;;;11.50;99.90;;;;;;5033388;28;20419;-76
2023/03/26 07:03:19;;;;;;;8.40;4.20;;;11.50;99.90;;;;;;5031750;28;20459;-76
2023/03/26 07:05:46;;;;;;;7.27;5.10;;;11.50;99.90;;;;;;5032570;28;20480;-76
2023/03/26 07:08:11;;;;;;;11.67;5.13;;;11.60;99.90;;;;;;5016495;28;20269;-76
2023/03/26 07:10:37;;;;;;;10.17;4.87;;;11.60;99.90;;;;;;5030997;28;20516;-75
2023/03/26 07:13:03;;;;;;;4.47;3.90;;;11.70;99.90;;;;;;5030546;28;20673;-76
2023/03/26 07:15:28;;;;;;;9.83;4.63;;;11.60;99.90;;;;;;5030982;28;20187;-75
2023/03/26 07:17:55;;;;;;;9.53;4.50;;;11.70;99.90;;;;;;5030882;28;20635;-76
2023/03/26 07:20:20;;;;;;;7.57;4.83;;;11.70;99.90;;;;;;5030048;28;20176;-75
2023/03/26 07:22:47;;;;;;;7.77;5.03;;;11.70;99.90;;;;;;5030726;28;20811;-79
2023/03/26 07:25:13;;;;;;;7.40;4.70;;;11.70;99.90;;;;;;5030527;28;20224;-76
2023/03/26 07:27:48;;;;;;;8.37;6.83;;;11.70;99.90;;;;;;5013924;28;20947;-84
2023/03/26 07:30:16;;;;;;;9.30;5.93;;;11.90;99.90;;;;;;4995944;28;20420;-80
2023/03/26 07:33:03;;;;;;;10.93;6.13;;;12.30;99.90;;;;;;5013977;28;20425;-80
2023/03/26 07:35:47;;;;;;;9.30;5.83;;;12.70;99.90;;;;;;5030678;28;20932;-80
2023/03/26 07:38:34;;;;;;;9.27;5.87;;;13.10;99.90;;;;;;5009081;28;20461;-81
2023/03/26 07:41:09;;;;;;;9.70;6.13;;;13.60;99.90;;;;;;5029018;28;20446;-83
2023/03/26 07:44:11;;;;;;;7.73;5.33;;;14.00;99.90;;;;;;4995898;28;20428;-81
2023/03/26 07:46:38;;;;;;;7.80;5.10;;;14.30;99.90;;;;;;5013239;28;20419;-84
2023/03/26 07:49:04;;;;;;;7.20;6.13;;;14.50;99.90;;;;;;5030542;28;20433;-80
2023/03/26 07:51:31;;;;;;;9.23;7.20;;;14.70;99.90;;;;;;5013025;28;20419;-83
2023/03/26 07:53:59;;;;;;;7.10;4.60;;;14.90;99.90;;;;;;5011833;28;20431;-77
2023/03/26 07:56:39;;;;;;;7.50;4.83;;;15.00;99.90;;;;;;5027399;28;20429;-75
2023/03/26 07:59:26;;;;;;;7.17;5.30;;;15.10;99.90;;;;;;5029547;28;20425;-75
2023/03/26 08:02:01;;;;;;;10.73;5.10;;;15.20;99.90;;;;;;5028238;28;20415;-75
2023/03/26 08:04:39;;;;;;;7.27;4.70;;;15.40;99.90;;;;;;5030447;28;20539;-75
2023/03/26 08:07:14;;;;;;;6.37;3.90;;;15.30;99.90;;;;;;5030638;28;20441;-74
2023/03/26 08:10:17;;;;;;;9.33;4.63;;;15.40;99.90;;;;;;5031192;28;20509;-74
2023/03/26 08:12:58;;;;;;;274.77;154.50;;;15.40;99.90;;;;;;4964392;28;20529;-75
2023/03/26 08:15:32;;;;;;;139.10;87.97;;;15.50;99.90;;;;;;5030921;28;20412;-74
2023/03/26 08:18:13;;;;;;;263.73;159.03;;;15.60;99.90;;;;;;5031561;28;20450;-75
2023/03/26 08:20:50;;;;;;;42.13;28.83;;;15.70;99.90;;;;;;5030862;28;20921;-75
2023/03/26 08:23:34;;;;;;;14.80;5.80;;;15.70;99.90;;;;;;5031402;28;20434;-75
2023/03/26 08:26:32;;;;;;;7.40;4.90;;;15.70;99.90;;;;;;5031382;28;20437;-75
2023/03/26 08:29:35;;;;;;;8.27;5.93;;;15.70;99.90;;;;;;5029883;28;20780;-75
2023/03/26 08:32:03;;;;;;;9.70;6.13;;;15.70;99.90;;;;;;5009837;28;20422;-76
2023/03/26 08:34:29;;;;;;;7.10;6.60;;;15.70;99.90;;;;;;5031701;28;20822;-75
2023/03/26 08:36:55;;;;;;;8.70;6.57;;;15.70;99.90;;;;;;5050765;28;20420;-76
2023/03/26 08:39:21;;;;;;;8.07;6.10;;;15.80;99.90;;;;;;5012337;28;20243;-76
2023/03/26 08:42:05;;;;;;;7.20;6.47;;;15.80;99.90;;;;;;5041323;28;20215;-76
2023/03/26 08:44:40;;;;;;;8.53;6.70;;;15.90;99.90;;;;;;5043872;28;20468;-76
2023/03/26 08:47:43;;;;;;;7.07;6.00;;;15.90;99.90;;;;;;5050097;28;20425;-76
2023/03/26 08:50:26;;;;;;;8.57;6.30;;;15.90;99.90;;;;;;5049560;28;20698;-76
2023/03/26 08:53:10;;;;;;;9.13;6.90;;;16.00;99.90;;;;;;5046629;28;20457;-77
2023/03/26 08:55:50;;;;;;;8.57;7.10;;;16.00;99.90;;;;;;5044582;28;20553;-76
2023/03/26 08:58:25;;;;;;;6.83;5.40;;;16.00;99.90;;;;;;5052029;28;20436;-76
2023/03/26 09:01:15;;;;;;;8.40;6.07;;;16.10;99.90;;;;;;5045928;28;20910;-76
2023/03/26 09:04:02;;;;;;;9.10;6.37;;;16.10;99.90;;;;;;5034996;28;20436;-80
2023/03/26 09:07:05;;;;;;;449.77;337.50;;;16.10;99.90;;;;;;5027728;28;20501;-80
2023/03/26 09:09:40;;;;;;;44.00;31.23;;;16.20;99.90;;;;;;5028366;28;20772;-81
2023/03/26 09:12:36;;;;;;;7.97;7.13;;;16.30;99.90;;;;;;5050270;28;20429;-79
2023/03/26 09:15:11;;;;;;;9.03;5.70;;;16.30;99.90;;;;;;5012924;28;20443;-80
2023/03/26 09:17:58;;;;;;;9.03;5.67;;;16.40;99.90;;;;;;5042751;28;20444;-80
2023/03/26 09:20:52;;;;;;;10.87;5.17;;;16.40;99.90;;;;;;5014793;28;20408;-80
2023/03/26 09:23:36;;;;;;;6.50;5.30;;;16.40;99.90;;;;;;5051862;28;20397;-80
2023/03/26 09:26:26;;;;;;;7.47;5.43;;;16.40;99.90;;;;;;5034503;28;20473;-80
2023/03/26 09:29:07;;;;;;;7.10;5.50;;;16.50;99.90;;;;;;5019133;28;20438;-80
2023/03/26 09:32:01;;;;;;;5.80;5.30;;;16.50;99.90;;;;;;5030010;28;20465;-80
2023/03/26 09:34:50;;;;;;;5.17;4.67;;;16.60;99.90;;;;;;5036320;28;20412;-80
2023/03/26 09:37:39;;;;;;;9.53;5.83;;;16.60;99.90;;;;;;5012201;28;20522;-80
2023/03/26 09:40:21;;;;;;;7.57;6.00;;;16.60;99.90;;;;;;5046378;28;20412;-79
2023/03/26 09:42:57;;;;;;;8.87;6.30;;;16.50;99.90;;;;;;5038641;28;20461;-79
2023/03/26 09:45:31;;;;;;;6.03;4.90;;;16.50;99.90;;;;;;5073760;28;20449;-80
2023/03/26 09:48:22;;;;;;;8.70;5.63;;;16.50;99.90;;;;;;5070774;28;20434;-80
2023/03/26 09:51:18;;;;;;;11.13;5.10;;;16.50;99.90;;;;;;5065192;28;20429;-79
2023/03/26 09:54:13;;;;;;;6.73;4.60;;;16.50;99.90;;;;;;5047872;28;20842;-80
2023/03/26 09:56:45;;;;;;;4.47;3.70;;;16.50;99.90;;;;;;5051079;28;20407;-80
2023/03/26 09:59:34;;;;;;;5.00;3.67;;;16.30;99.70;;;;;;5054063;28;20423;-80
2023/03/26 10:02:41;;;;;;;3.50;3.30;;;16.00;99.90;;;;;;5030484;28;20439;-79
2023/03/26 10:05:29;;;;;;;4.70;3.80;;;15.90;99.90;;;;;;5048081;28;20437;-79
2023/03/26 10:08:36;;;;;;;4.43;3.70;;;16.00;99.90;;;;;;5050216;28;20486;-80
2023/03/26 10:11:14;;;;;;;3.27;2.97;;;16.00;99.90;;;;;;4971104;28;20432;-79
2023/03/26 10:13:55;;;;;;;3.60;3.30;;;16.00;99.90;;;;;;5051246;28;20757;-79
2023/03/26 10:16:40;;;;;;;3.33;3.03;;;16.10;99.90;;;;;;5055567;28;20812;-79
2023/03/26 10:19:21;;;;;;;3.87;3.50;;;16.10;99.90;;;;;;5052825;28;20426;-78
2023/03/26 10:22:16;;;;;;;3.73;3.47;;;16.10;99.90;;;;;;5034258;28;20807;-79
2023/03/26 10:25:19;;;;;;;3.63;3.33;;;16.20;99.90;;;;;;5052790;28;20439;-78
2023/03/26 10:27:57;;;;;;;21.83;16.73;;;16.20;99.90;;;;;;5051978;28;20423;-77
2023/03/26 10:31:04;;;;;;;9.43;5.67;;;16.20;99.90;;;;;;5050015;28;20461;-78
2023/03/26 10:33:39;;;;;;;3.37;3.13;;;16.30;99.90;;;;;;5049584;28;20429;-78
2023/03/26 10:36:20;;;;;;;4.40;4.00;;;16.30;99.90;;;;;;5050043;28;20906;-78
2023/03/26 10:39:00;;;;;;;4.03;3.77;;;16.30;99.50;;;;;;5052470;28;20439;-78
2023/03/26 10:42:01;;;;;;;2.57;2.47;;;16.30;98.70;;;;;;5048520;28;20470;-78
2023/03/26 10:44:48;;;;;;;3.33;3.03;;;16.30;98.50;;;;;;5051265;28;20475;-78
2023/03/26 10:47:23;;;;;;;2.70;2.50;;;16.20;99.00;;;;;;5051221;28;20441;-77
2023/03/26 10:50:23;;;;;;;2.60;2.40;;;16.00;96.10;;;;;;5052688;28;20740;-78
2023/03/26 10:53:02;;;;;;;4.60;4.30;;;15.50;97.50;;;;;;5008102;28;20429;-78
2023/03/26 10:55:36;;;;;;;2.73;2.53;;;15.00;98.40;;;;;;5047890;28;20423;-77
2023/03/26 10:58:20;;;;;;;2.43;2.33;;;14.60;99.10;;;;;;5048414;28;20424;-78
2023/03/26 11:00:59;;;;;;;2.40;2.30;;;14.50;99.90;;;;;;5042894;28;20779;-78
2023/03/26 11:03:50;;;;;;;2.27;2.00;;;14.20;99.90;;;;;;5049641;28;20415;-79
2023/03/26 11:06:29;;;;;;;2.57;2.37;;;13.70;99.90;;;;;;5051057;28;20455;-78
2023/03/26 11:09:00;;;;;;;475.97;292.50;;;13.20;99.90;;;;;;5051358;28;20435;-78
2023/03/26 11:12:05;;;;;;;57.30;41.63;;;13.20;99.90;;;;;;5054301;28;20518;-77
2023/03/26 11:14:50;;;;;;;3.10;2.90;;;13.40;99.90;;;;;;5050166;28;20774;-79
2023/03/26 11:17:41;;;;;;;3.63;3.33;;;13.40;99.90;;;;;;5050913;28;20398;-79
2023/03/26 11:20:27;;;;;;;3.73;3.43;;;13.60;99.90;;;;;;5047736;28;20770;-79
2023/03/26 11:23:23;;;;;;;5.27;4.87;;;13.50;99.90;;;;;;5050772;28;20509;-80
2023/03/26 11:26:05;;;;;;;2.70;2.60;;;13.90;99.90;;;;;;5050347;28;20448;-79
2023/03/26 11:28:42;;;;;;;3.30;3.10;;;14.20;99.90;;;;;;5049582;28;20461;-79
2023/03/26 11:32:05;;;;;;;2.53;2.43;;;14.20;99.90;;;;;;5030357;28;20509;-79
2023/03/26 11:34:37;;;;;;;2.93;2.80;;;14.60;99.90;;;;;;4973269;28;20436;-79
2023/03/26 11:37:10;;;;;;;2.93;2.73;;;14.80;99.90;;;;;;4970900;28;20451;-79
2023/03/26 11:39:50;;;;;;;2.53;2.43;;;14.90;99.90;;;;;;5022729;28;20416;-79
2023/03/26 11:42:18;;;;;;;2.33;2.23;;;15.00;99.90;;;;;;5039472;28;21162;-79
2023/03/26 11:44:51;;;;;;;2.47;2.37;;;15.20;99.90;;;;;;5031046;28;20464;-79
2023/03/26 11:47:23;;;;;;;3.00;2.90;;;15.20;99.00;;;;;;5014660;28;20426;-79
2023/03/26 11:49:53;;;;;;;957.53;682.37;;;15.30;98.80;;;;;;5018107;28;20419;-78
2023/03/26 11:52:18;;;;;;;33.17;20.83;;;15.40;99.10;;;;;;5013296;28;20506;-79
2023/03/26 11:54:47;;;;;;;3.57;3.27;;;15.50;99.40;;;;;;5031860;28;20852;-79
2023/03/26 11:57:19;;;;;;;3.33;3.00;;;15.70;99.40;;;;;;5014504;28;20211;-79
2023/03/26 12:00:07;;;;;;;3.10;2.80;;;15.70;98.40;;;;;;5031276;28;20457;-79
2023/03/26 12:02:40;;;;;;;2.53;2.33;;;15.80;98.40;;;;;;5032518;28;20402;-79
2023/03/26 12:05:19;;;;;;;2.90;2.70;;;15.90;99.30;;;;;;5031832;28;20452;-79
2023/03/26 12:07:55;;;;;;;2.43;2.33;;;16.00;99.10;;;;;;5031735;28;20412;-79
2023/03/26 12:10:23;;;;;;;2.53;2.43;;;16.10;97.60;;;;;;5031844;28;20423;-79
2023/03/26 12:12:52;;;;;;;2.97;2.77;;;16.10;97.60;;;;;;4997574;28;20506;-79
2023/03/26 12:15:20;;;;;;;2.80;2.67;;;16.10;97.40;;;;;;5013769;28;20489;-79
2023/03/26 12:17:52;;;;;;;2.87;2.77;;;16.10;97.80;;;;;;4997459;28;20982;-78
2023/03/26 12:20:33;;;;;;;3.20;2.90;;;16.10;98.80;;;;;;5027322;28;20452;-79
2023/03/26 12:23:05;;;;;;;2.70;2.60;;;16.00;99.90;;;;;;5011844;28;20895;-80
2023/03/26 12:25:34;;;;;;;3.67;3.37;;;16.00;99.90;;;;;;5014049;28;20799;-79
2023/03/26 12:28:14;;;;;;;2.37;2.27;;;16.10;99.90;;;;;;5031773;28;20443;-80
2023/03/26 12:30:52;;;;;;;2.87;2.77;;;15.80;96.30;;;;;;5013042;28;20428;-78
2023/03/26 12:33:33;;;;;;;3.47;3.13;;;15.70;97.30;;;;;;5027354;28;20402;-78
2023/03/26 12:36:26;;;;;;;2.57;2.37;;;15.80;96.90;;;;;;5028743;28;20507;-79
2023/03/26 12:38:53;;;;;;;2.60;2.50;;;15.70;97.80;;;;;;5029878;28;20415;-79
2023/03/26 12:41:32;;;;;;;1.83;1.83;;;15.60;96.50;;;;;;5027675;28;20470;-80
2023/03/26 12:44:19;;;;;;;2.30;2.20;;;15.60;96.80;;;;;;5012217;28;20500;-79
2023/03/26 12:46:47;;;;;;;1.83;1.83;;;15.70;97.40;;;;;;5013335;28;20786;-79
2023/03/26 12:49:13;;;;;;;2.50;2.40;;;15.70;98.10;;;;;;5028830;28;20434;-79
2023/03/26 12:51:55;;;;;;;2.53;2.43;;;15.80;97.20;;;;;;5032032;28;20477;-79
2023/03/26 12:54:49;;;;;;;3.20;3.00;;;15.80;98.10;;;;;;5011888;28;20435;-79
2023/03/26 12:57:31;;;;;;;3.30;3.20;;;15.80;98.00;;;;;;5028492;28;20396;-80
2023/03/26 13:00:20;;;;;;;3.00;2.90;;;15.90;98.20;;;;;;5028785;28;20406;-80
2023/03/26 13:02:52;;;;;;;5.40;5.00;;;15.90;99.20;;;;;;5011994;28;20538;-80
2023/03/26 13:05:35;;;;;;;2.77;2.67;;;16.10;98.80;;;;;;5010743;28;20560;-79
2023/03/26 13:08:31;;;;;;;3.20;3.00;;;16.10;98.40;;;;;;5028820;28;20412;-79
2023/03/26 13:11:00;;;;;;;3.50;3.30;;;16.30;98.60;;;;;;4995277;28;20954;-80
2023/03/26 13:13:41;;;;;;;2.87;2.73;;;16.30;97.80;;;;;;5031938;28;20424;-79
2023/03/26 13:16:21;;;;;;;74.67;53.03;;;16.20;96.40;;;;;;5028120;28;20428;-80
2023/03/26 13:19:01;;;;;;;8.70;7.83;;;16.20;98.40;;;;;;5022908;28;20770;-80